createdAt,value
2023-01-25T00:00:02.297Z,101571.77
2023-01-25T00:02:32.121Z,101571.83
2023-01-25T00:04:59.745Z,101572.13
2023-01-25T00:07:27.012Z,101573.38
2023-01-25T00:09:54.442Z,101574.05
2023-01-25T00:12:22.087Z,101576.52
2023-01-25T00:14:49.126Z,101574.66
2023-01-25T00:17:16.424Z,101578.09
2023-01-25T00:19:43.695Z,101574.64
2023-01-25T00:22:11.146Z,101572.14
2023-01-25T00:24:38.690Z,101566.44
2023-01-25T00:27:05.618Z,101566.67
2023-01-25T00:29:32.636Z,101562.34
2023-01-25T00:32:29.406Z,101563.28
2023-01-25T00:34:58.346Z,101558.54
2023-01-25T00:37:28.765Z,101561.69
2023-01-25T00:40:01.118Z,101561.85
2023-01-25T00:42:28.054Z,101562.04
2023-01-25T00:44:54.991Z,101563.58
2023-01-25T00:47:23.778Z,101561.34
2023-01-25T00:49:50.857Z,101560.23
2023-01-25T00:52:18.544Z,101561.41
2023-01-25T00:54:46.247Z,101555.08
2023-01-25T00:57:13.916Z,101556.04
2023-01-25T00:59:44.657Z,101559.89
2023-01-25T01:02:12.725Z,101552.19
2023-01-25T01:04:39.644Z,101551.10
2023-01-25T01:07:12.306Z,101552.69
2023-01-25T01:09:39.731Z,101550.54
2023-01-25T01:12:06.706Z,101552.14
2023-01-25T01:14:33.957Z,101553.90
2023-01-25T01:17:01.782Z,101552.51
2023-01-25T01:19:29.395Z,101551.16
2023-01-25T01:21:56.575Z,101552.48
2023-01-25T01:24:23.943Z,101552.39
2023-01-25T01:26:50.940Z,101552.79
2023-01-25T01:29:18.346Z,101548.34
2023-01-25T01:31:45.807Z,101551.14
2023-01-25T01:34:18.342Z,101544.67
2023-01-25T01:36:45.799Z,101541.21
2023-01-25T01:39:13.275Z,101539.73
2023-01-25T01:41:40.318Z,101539.52
2023-01-25T01:44:15.693Z,101535.96
2023-01-25T01:46:42.907Z,101544.48
2023-01-25T01:49:18.968Z,101545.60
2023-01-25T01:51:53.490Z,101548.25
2023-01-25T01:54:29.204Z,101549.16
2023-01-25T01:57:06.970Z,101547.98
2023-01-25T01:59:46.656Z,101542.34
2023-01-25T02:02:14.758Z,101542.08
2023-01-25T02:04:43.141Z,101541.52
2023-01-25T02:07:32.730Z,101541.07
2023-01-25T02:10:01.347Z,101535.39
2023-01-25T02:12:29.530Z,101532.70
2023-01-25T02:14:56.585Z,101526.64
2023-01-25T02:17:27.879Z,101525.70
2023-01-25T02:20:07.853Z,101525.86
2023-01-25T02:22:45.131Z,101528.46
2023-01-25T02:25:14.388Z,101522.59
2023-01-25T02:27:43.445Z,101518.29
2023-01-25T02:30:11.404Z,101522.56
2023-01-25T02:32:39.720Z,101518.84
2023-01-25T02:35:07.855Z,101519.70
2023-01-25T02:37:35.746Z,101517.06
2023-01-25T02:40:05.861Z,101517.20
2023-01-25T02:42:35.659Z,101514.59
2023-01-25T02:45:04.964Z,101507.85
2023-01-25T02:47:32.398Z,101505.19
2023-01-25T02:50:00.703Z,101502.89
2023-01-25T02:52:28.251Z,101498.42
2023-01-25T02:54:55.898Z,101503.54
2023-01-25T02:57:23.257Z,101500.70
2023-01-25T02:59:50.980Z,101500.30
2023-01-25T03:02:19.013Z,101503.22
2023-01-25T03:04:46.718Z,101501.56
2023-01-25T03:07:13.897Z,101500.77
2023-01-25T03:09:41.592Z,101505.83
2023-01-25T03:12:08.799Z,101503.77
2023-01-25T03:14:38.529Z,101498.38
2023-01-25T03:17:59.518Z,101498.89
2023-01-25T03:20:27.707Z,101500.31
2023-01-25T03:22:55.520Z,101498.63
2023-01-25T03:25:22.573Z,101499.01
2023-01-25T03:28:04.380Z,101493.94
2023-01-25T03:30:31.441Z,101487.70
2023-01-25T03:32:58.839Z,101491.75
2023-01-25T03:35:26.159Z,101497.17
2023-01-25T03:37:54.410Z,101497.02
2023-01-25T03:40:21.925Z,101502.36
2023-01-25T03:42:50.949Z,101505.10
2023-01-25T03:45:18.251Z,101510.39
2023-01-25T03:47:45.386Z,101510.31
2023-01-25T03:50:12.389Z,101514.30
2023-01-25T03:52:42.206Z,101515.29
2023-01-25T03:55:09.993Z,101523.63
2023-01-25T03:57:42.347Z,101527.23
2023-01-25T04:00:12.908Z,101528.27
2023-01-25T04:02:45.177Z,101527.66
2023-01-25T04:05:16.130Z,101531.56
2023-01-25T04:07:43.120Z,101529.66
2023-01-25T04:10:11.045Z,101528.95
2023-01-25T04:12:40.468Z,101531.83
2023-01-25T04:15:08.536Z,101528.11
2023-01-25T04:17:36.015Z,101526.98
2023-01-25T04:20:13.625Z,101522.14
2023-01-25T04:22:40.943Z,101522.11
2023-01-25T04:25:09.433Z,101528.25
2023-01-25T04:27:39.237Z,101534.55
2023-01-25T04:30:10.044Z,101534.64
2023-01-25T04:32:38.337Z,101532.84
2023-01-25T04:35:13.870Z,101533.05
2023-01-25T04:37:41.962Z,101536.23
2023-01-25T04:40:10.216Z,101536.34
2023-01-25T04:42:42.526Z,101540.13
2023-01-25T04:45:10.437Z,101537.65
2023-01-25T04:47:38.604Z,101535.75
2023-01-25T04:50:07.213Z,101545.27
2023-01-25T04:52:34.932Z,101542.65
2023-01-25T04:55:02.008Z,101548.77
2023-01-25T04:57:29.504Z,101545.14
2023-01-25T04:59:57.577Z,101547.34
2023-01-25T05:02:24.687Z,101543.95
2023-01-25T05:04:52.806Z,101544.98
2023-01-25T05:07:20.274Z,101549.77
2023-01-25T05:09:48.796Z,101552.17
2023-01-25T05:12:16.169Z,101552.98
2023-01-25T05:14:51.914Z,101556.83
2023-01-25T05:17:21.772Z,101558.36
2023-01-25T05:19:50.316Z,101552.31
2023-01-25T05:22:23.863Z,101545.59
2023-01-25T05:24:55.020Z,101548.23
2023-01-25T05:27:23.626Z,101555.31
2023-01-25T05:29:54.263Z,101557.88
2023-01-25T05:32:25.318Z,101559.77
2023-01-25T05:34:53.091Z,101554.36
2023-01-25T05:37:21.306Z,101551.08
2023-01-25T05:39:53.627Z,101551.33
2023-01-25T05:42:21.691Z,101551.52
2023-01-25T05:44:49.158Z,101550.62
2023-01-25T05:47:18.336Z,101550.39
2023-01-25T05:49:46.987Z,101545.45
2023-01-25T05:52:27.381Z,101543.95
2023-01-25T05:54:55.149Z,101545.68
2023-01-25T05:57:25.279Z,101546.14
2023-01-25T05:59:53.361Z,101545.39
2023-01-25T06:02:22.686Z,101548.84
2023-01-25T06:04:50.143Z,101546.09
2023-01-25T06:07:18.604Z,101549.93
2023-01-25T06:09:45.704Z,101551.65
2023-01-25T06:12:13.260Z,101556.14
2023-01-25T06:14:40.541Z,101550.20
2023-01-25T06:17:08.220Z,101554.20
2023-01-25T06:20:08.120Z,101558.66
2023-01-25T06:22:44.225Z,101560.41
2023-01-25T06:25:11.547Z,101555.05
2023-01-25T06:27:38.651Z,101548.11
2023-01-25T06:30:06.036Z,101539.92
2023-01-25T06:32:33.543Z,101535.50
2023-01-25T06:35:00.984Z,101536.09
2023-01-25T06:37:28.191Z,101533.88
2023-01-25T06:39:55.197Z,101528.66
2023-01-25T06:42:24.465Z,101526.91
2023-01-25T09:31:40.536Z,101483.01
2023-01-25T09:34:36.208Z,101473.59
2023-01-25T09:37:03.527Z,101467.20
2023-01-25T09:39:30.795Z,101468.45
2023-01-25T09:42:23.219Z,101463.65
2023-01-25T09:45:30.385Z,101463.13
2023-01-25T09:48:11.106Z,101455.59
2023-01-25T09:50:40.705Z,101455.16
2023-01-25T09:53:19.534Z,101458.83
2023-01-25T09:55:51.322Z,101456.78
2023-01-25T09:58:24.751Z,101457.70
2023-01-25T10:01:16.562Z,101453.55
2023-01-25T10:03:51.072Z,101447.89
2023-01-25T10:06:20.891Z,101440.99
2023-01-25T10:08:58.810Z,101436.48
2023-01-25T10:11:32.048Z,101437.41
2023-01-25T10:13:59.666Z,101430.90
2023-01-25T10:16:52.496Z,101429.38
2023-01-25T10:19:39.324Z,101423.15
2023-01-25T10:22:16.088Z,101419.41
2023-01-25T10:24:46.417Z,101413.48
2023-01-25T10:27:19.825Z,101411.30
2023-01-25T10:29:47.067Z,101406.44
2023-01-25T10:32:27.215Z,101403.96
2023-01-25T10:34:57.461Z,101397.21
2023-01-25T10:37:28.606Z,101394.05
2023-01-25T10:39:59.033Z,101394.01
2023-01-25T10:42:26.767Z,101387.49
2023-01-25T10:44:53.840Z,101380.77
2023-01-25T10:47:20.745Z,101374.94
2023-01-25T10:49:59.700Z,101370.29
2023-01-25T10:52:31.586Z,101364.98
2023-01-25T10:55:18.624Z,101358.36
2023-01-25T10:57:48.860Z,101357.95
2023-01-25T11:00:30.512Z,101355.35
2023-01-25T11:02:57.835Z,101350.76
2023-01-25T11:05:26.685Z,101339.44
2023-01-25T11:07:54.289Z,101337.98
2023-01-25T11:10:32.914Z,101333.21
2023-01-25T11:13:15.158Z,101328.17
2023-01-25T11:15:46.107Z,101314.30
2023-01-25T11:18:23.894Z,101305.23
2023-01-25T11:21:06.749Z,101297.55
2023-01-25T11:23:34.896Z,101292.34
2023-01-25T11:26:18.539Z,101290.45
2023-01-25T11:28:49.111Z,101285.52
2023-01-25T11:31:22.595Z,101279.97
2023-01-25T11:33:49.642Z,101271.11
2023-01-25T11:36:44.486Z,101271.99
2023-01-25T11:39:48.962Z,101273.83
2023-01-25T11:42:46.040Z,101272.84
2023-01-25T11:45:35.035Z,101266.61
2023-01-25T11:48:23.444Z,101261.85
2023-01-25T11:51:27.403Z,101260.45
2023-01-25T11:54:20.573Z,101259.65
2023-01-25T11:56:59.633Z,101257.15
2023-01-25T12:00:03.790Z,101256.08
2023-01-25T12:02:51.266Z,101253.79
2023-01-25T12:05:36.702Z,101254.98
2023-01-25T12:08:12.930Z,101246.33
2023-01-25T12:11:06.712Z,101246.62
2023-01-25T15:17:48.723Z,101219.29
2023-01-25T15:20:39.149Z,101216.95
2023-01-25T15:23:12.133Z,101218.08
2023-01-25T15:26:00.017Z,101218.14
2023-01-25T15:28:30.374Z,101221.41
2023-01-25T15:30:59.602Z,101218.08
2023-01-25T15:33:29.060Z,101221.21
2023-01-25T15:35:56.610Z,101223.86
2023-01-25T15:38:25.192Z,101223.64
2023-01-25T15:40:53.345Z,101223.59
2023-01-25T15:43:21.319Z,101219.95
2023-01-25T15:45:50.235Z,101223.42
2023-01-25T15:48:29.787Z,101227.93
2023-01-25T15:50:57.897Z,101227.98
2023-01-25T15:53:25.020Z,101228.71
2023-01-25T15:55:55.792Z,101227.52
2023-01-25T15:58:28.537Z,101223.34
2023-01-25T16:00:55.774Z,101223.95
2023-01-25T16:03:23.081Z,101221.20
2023-01-25T16:05:52.109Z,101223.39
2023-01-25T16:08:19.539Z,101224.56
2023-01-25T16:10:47.024Z,101224.96
2023-01-25T16:13:14.603Z,101225.13
2023-01-25T16:15:42.514Z,101222.49
2023-01-25T16:18:12.863Z,101219.69
2023-01-25T16:20:40.393Z,101221.80
2023-01-25T16:23:08.714Z,101222.31
2023-01-25T16:25:36.037Z,101217.20
2023-01-25T16:28:03.323Z,101218.17
2023-01-25T16:30:34.429Z,101218.16
2023-01-25T16:33:02.116Z,101218.65
2023-01-25T16:35:29.381Z,101219.59
2023-01-25T16:37:57.145Z,101219.05
2023-01-25T16:40:36.795Z,101220.37
2023-01-25T16:43:04.430Z,101222.08
2023-01-25T16:45:32.281Z,101220.09
2023-01-25T16:48:00.365Z,101216.40
2023-01-25T16:50:27.901Z,101221.58
2023-01-25T16:52:58.695Z,101225.86
2023-01-25T16:55:25.936Z,101233.09
2023-01-25T16:57:52.964Z,101234.73
2023-01-25T17:00:20.936Z,101238.80
2023-01-25T17:02:58.577Z,101235.56
2023-01-25T17:05:33.203Z,101237.61
2023-01-25T17:08:00.719Z,101228.21
2023-01-25T17:10:30.643Z,101223.64
2023-01-25T17:12:57.953Z,101218.52
2023-01-25T17:15:26.400Z,101220.39
2023-01-25T17:17:54.000Z,101229.40
2023-01-25T17:20:22.674Z,101227.48
2023-01-25T17:22:51.436Z,101228.39
2023-01-25T17:25:18.555Z,101227.05
2023-01-25T17:27:46.521Z,101222.00
2023-01-25T17:30:15.037Z,101219.24
2023-01-25T17:32:42.238Z,101217.06
2023-01-25T17:35:09.592Z,101220.44
2023-01-25T17:37:41.065Z,101217.22
2023-01-25T17:40:10.542Z,101220.52
2023-01-25T17:42:37.775Z,101220.19
2023-01-25T17:45:05.739Z,101215.84
2023-01-25T17:47:35.611Z,101214.95
2023-01-25T17:50:04.685Z,101215.67
2023-01-25T17:52:32.834Z,101212.79
2023-01-25T17:55:00.627Z,101211.94
2023-01-25T17:57:29.339Z,101211.98
2023-01-25T17:59:59.900Z,101208.80
2023-01-25T18:02:27.237Z,101210.40
2023-01-25T18:04:54.608Z,101213.70
2023-01-25T19:21:52.149Z,101176.67
2023-01-25T19:24:21.075Z,101172.52
2023-01-25T19:26:49.015Z,101172.73
2023-01-25T19:29:16.293Z,101173.80
2023-01-25T19:31:43.648Z,101167.66
2023-01-25T19:34:11.209Z,101161.45
2023-01-25T19:36:43.934Z,101151.41
2023-01-25T19:39:11.722Z,101147.48
2023-01-25T19:41:39.596Z,101151.88
2023-01-25T19:44:07.432Z,101153.50
2023-01-25T19:46:35.543Z,101150.20
2023-01-25T19:49:05.355Z,101146.11
2023-01-25T19:51:34.955Z,101142.48
2023-01-25T19:54:05.564Z,101139.63
2023-01-25T19:56:35.814Z,101137.45
2023-01-25T19:59:08.632Z,101136.31
2023-01-25T20:01:43.832Z,101135.20
2023-01-25T20:54:06.073Z,101126.09
2023-01-25T21:35:34.798Z,101109.96
2023-01-25T21:38:04.819Z,101111.73
2023-01-25T21:40:35.598Z,101113.47
2023-01-25T21:43:04.882Z,101110.92
2023-01-25T21:45:58.115Z,101114.93
2023-01-25T21:48:51.559Z,101115.35
2023-01-25T21:51:36.404Z,101115.83
2023-01-25T21:54:06.210Z,101113.36
2023-01-25T21:56:36.117Z,101116.13
2023-01-25T21:59:06.961Z,101116.23
2023-01-25T22:01:37.556Z,101113.23
2023-01-25T22:04:09.805Z,101111.52
2023-01-25T22:06:40.108Z,101110.56
2023-01-25T22:09:09.055Z,101105.41
2023-01-25T22:11:45.582Z,101102.48
2023-01-25T22:14:17.956Z,101098.86
2023-01-25T22:16:48.398Z,101098.05
2023-01-25T22:19:19.298Z,101099.98
2023-01-25T22:21:49.515Z,101098.94
2023-01-25T22:24:22.179Z,101100.11
2023-01-25T22:27:26.279Z,101099.80
2023-01-25T22:29:54.335Z,101096.70
2023-01-25T22:32:22.367Z,101095.33
2023-01-25T22:34:50.338Z,101092.54
2023-01-25T22:37:17.824Z,101093.33
2023-01-25T22:39:46.405Z,101092.17
2023-01-25T22:42:14.788Z,101092.05
2023-01-25T22:44:42.832Z,101087.10
2023-01-25T22:47:10.516Z,101087.69
2023-01-25T22:49:38.940Z,101089.60
2023-01-25T22:52:06.630Z,101092.06
2023-01-25T22:54:36.618Z,101089.11
2023-01-25T22:57:04.248Z,101087.94
2023-01-25T22:59:32.193Z,101086.81
2023-01-25T23:02:00.521Z,101080.77
2023-01-25T23:04:28.723Z,101082.67
2023-01-25T23:07:02.466Z,101078.23
2023-01-25T23:09:30.194Z,101077.67
2023-01-25T23:11:58.879Z,101080.09
2023-01-25T23:14:45.524Z,101077.84
2023-01-25T23:17:31.999Z,101073.28
2023-01-25T23:19:58.978Z,101072.27
2023-01-25T23:22:27.324Z,101077.36
2023-01-25T23:24:54.865Z,101073.95
2023-01-25T23:27:22.476Z,101076.52
2023-01-25T23:29:51.214Z,101072.96
2023-01-25T23:32:18.844Z,101074.35
2023-01-25T23:34:46.028Z,101070.91
2023-01-25T23:37:14.870Z,101068.17
2023-01-25T23:39:44.394Z,101073.70
2023-01-25T23:42:13.413Z,101073.72
2023-01-25T23:44:41.401Z,101072.01
2023-01-25T23:47:09.364Z,101073.86
2023-01-25T23:49:36.830Z,101071.31
2023-01-25T23:52:03.955Z,101070.70
2023-01-25T23:54:31.474Z,101066.38
2023-01-25T23:56:59.256Z,101066.78
2023-01-25T23:59:27.779Z,101067.63
